createdAt,value
2019-03-04T00:00:55.808Z,76.88
2019-03-04T00:01:55.778Z,76.47
2019-03-04T00:02:56.691Z,76.47
2019-03-04T00:03:55.658Z,76.68
2019-03-04T00:04:55.589Z,76.54
2019-03-04T00:05:55.561Z,76.47
2019-03-04T00:06:55.528Z,76.34
2019-03-04T00:07:55.498Z,76.37
2019-03-04T00:08:55.489Z,76.03
2019-03-04T00:09:55.441Z,76.23
2019-03-04T00:10:55.412Z,76.23
2019-03-04T00:11:55.382Z,76.03
2019-03-04T00:12:55.351Z,76.27
2019-03-04T00:13:55.345Z,76.06
2019-03-04T00:14:55.288Z,76.47
2019-03-04T00:15:55.336Z,76.27
2019-03-04T00:16:55.258Z,76.37
2019-03-04T00:17:55.201Z,76.57
2019-03-04T00:18:55.636Z,76.68
2019-03-04T00:19:56.093Z,76.37
2019-03-04T00:20:56.099Z,76.57
2019-03-04T00:21:55.597Z,76.72
2019-03-04T00:22:55.045Z,76.78
2019-03-04T00:23:55.593Z,76.68
2019-03-04T00:24:55.130Z,76.78
2019-03-04T00:25:54.970Z,76.78
2019-03-04T00:26:54.931Z,76.57
2019-03-04T00:27:54.899Z,76.78
2019-03-04T00:28:54.976Z,76.57
2019-03-04T00:29:54.874Z,76.27
2019-03-04T00:30:54.804Z,76.68
2019-03-04T00:31:54.811Z,76.06
2019-03-04T00:32:54.757Z,76.06
2019-03-04T00:33:54.727Z,76.37
2019-03-04T00:34:54.717Z,76.27
2019-03-04T00:35:54.656Z,76.17
2019-03-04T00:36:54.632Z,76.47
2019-03-04T00:37:54.597Z,76.68
2019-03-04T00:38:54.659Z,76.51
2019-03-04T00:39:54.631Z,76.92
2019-03-04T00:40:55.103Z,76.68
2019-03-04T00:41:55.097Z,76.57
2019-03-04T00:42:54.448Z,76.27
2019-03-04T00:43:54.412Z,76.31
2019-03-04T00:44:54.644Z,76.06
2019-03-04T00:45:54.355Z,76.31
2019-03-04T00:46:54.325Z,76.37
2019-03-04T00:47:54.295Z,76.27
2019-03-04T00:48:55.120Z,76.06
2019-03-04T00:49:54.270Z,76.17
2019-03-04T00:50:55.096Z,76.06
2019-03-04T00:51:54.180Z,76.17
2019-03-04T00:52:55.112Z,76.17
2019-03-04T00:53:54.120Z,76.17
2019-03-04T00:54:54.116Z,76.06
2019-03-04T00:55:54.054Z,76.06
2019-03-04T00:56:54.024Z,76.06
2019-03-04T00:57:54.599Z,76.27
2019-03-04T00:58:53.966Z,76.17
2019-03-04T00:59:54.140Z,75.65
2019-03-04T01:00:53.903Z,75.76
2019-03-04T01:01:54.604Z,75.35
2019-03-04T01:02:53.849Z,75.45
2019-03-04T01:03:54.630Z,75.35
2019-03-04T01:04:54.600Z,75.76
2019-03-04T01:05:53.773Z,75.96
2019-03-04T01:06:53.726Z,75.93
2019-03-04T01:07:53.697Z,76.23
2019-03-04T01:08:53.666Z,76.13
2019-03-04T01:09:53.634Z,75.24
2019-03-04T01:10:53.658Z,75.52
2019-03-04T01:11:53.577Z,75.93
2019-03-04T01:12:53.684Z,76.03
2019-03-04T01:13:53.517Z,76.03
2019-03-04T01:14:53.507Z,75.86
2019-03-04T01:15:53.635Z,75.96
2019-03-04T01:16:53.427Z,76.17
2019-03-04T01:17:54.102Z,76.06
2019-03-04T01:18:53.366Z,75.35
2019-03-04T01:19:53.337Z,75.04
2019-03-04T01:20:53.349Z,76.17
2019-03-04T01:21:53.282Z,75.86
2019-03-04T01:22:53.254Z,75.96
2019-03-04T01:23:53.222Z,76.17
2019-03-04T01:24:53.187Z,75.76
2019-03-04T01:25:53.183Z,75.96
2019-03-04T01:26:53.129Z,75.35
2019-03-04T01:27:53.097Z,76.27
2019-03-04T01:28:53.070Z,76.31
2019-03-04T01:29:53.043Z,76.31
2019-03-04T01:30:53.139Z,76.40
2019-03-04T01:31:52.974Z,76.65
2019-03-04T01:32:53.665Z,76.95
2019-03-04T01:33:52.919Z,76.99
2019-03-04T01:34:52.886Z,76.99
2019-03-04T01:35:52.879Z,77.29
2019-03-04T01:36:52.834Z,77.71
2019-03-04T01:37:53.609Z,77.61
2019-03-04T01:38:52.776Z,78.67
2019-03-04T01:39:52.740Z,78.56
2019-03-04T01:40:52.739Z,78.87
2019-03-04T01:41:52.677Z,78.77
2019-03-04T01:42:52.649Z,78.87
2019-03-04T01:43:52.614Z,79.11
2019-03-04T01:44:53.121Z,79.11
2019-03-04T01:45:52.581Z,79.11
2019-03-04T01:46:52.524Z,79.11
2019-03-04T01:47:53.107Z,79.32
2019-03-04T01:48:52.461Z,79.32
2019-03-04T01:49:53.126Z,79.32
2019-03-04T01:50:52.425Z,79.63
2019-03-04T01:51:52.374Z,79.42
2019-03-04T01:52:52.350Z,79.22
2019-03-04T01:53:52.308Z,79.42
2019-03-04T01:54:53.111Z,79.22
2019-03-04T01:55:52.654Z,79.52
2019-03-04T01:56:52.220Z,79.22
2019-03-04T01:57:53.109Z,79.42
2019-03-04T01:58:52.155Z,79.56
2019-03-04T01:59:53.111Z,79.11
2019-03-04T02:00:52.144Z,79.22
2019-03-04T02:01:52.070Z,79.52
2019-03-04T02:02:52.611Z,79.77
2019-03-04T02:03:52.002Z,79.63
2019-03-04T02:04:51.972Z,80.18
2019-03-04T02:05:52.700Z,79.97
2019-03-04T02:06:51.907Z,80.18
2019-03-04T02:07:52.614Z,79.87
2019-03-04T02:08:51.847Z,80.38
2019-03-04T02:09:51.816Z,80.07
2019-03-04T02:10:52.149Z,80.18
2019-03-04T02:11:51.754Z,80.07
2019-03-04T02:12:51.722Z,79.87
2019-03-04T02:13:51.699Z,79.77
2019-03-04T02:14:51.664Z,80.28
2019-03-04T02:15:51.654Z,80.38
2019-03-04T02:16:51.597Z,80.63
2019-03-04T02:17:52.111Z,80.79
2019-03-04T02:18:51.540Z,80.69
2019-03-04T02:19:51.518Z,80.83
2019-03-04T02:20:51.653Z,81.14
2019-03-04T02:21:51.448Z,81.34
2019-03-04T02:22:52.117Z,81.20
2019-03-04T02:23:51.383Z,81.34
2019-03-04T02:24:51.348Z,81.10
2019-03-04T02:25:51.318Z,81.20
2019-03-04T02:26:51.314Z,80.58
2019-03-04T02:27:51.257Z,80.58
2019-03-04T02:28:51.224Z,80.49
2019-03-04T02:29:52.116Z,80.90
2019-03-04T02:30:51.162Z,80.93
2019-03-04T02:31:51.156Z,80.49
2019-03-04T02:32:51.617Z,80.79
2019-03-04T02:33:51.072Z,80.58
2019-03-04T02:34:51.622Z,80.38
2019-03-04T02:35:51.810Z,80.28
2019-03-04T02:36:51.000Z,80.49
2019-03-04T02:37:51.635Z,80.63
2019-03-04T02:38:50.916Z,80.69
2019-03-04T02:39:51.615Z,80.73
2019-03-04T02:40:50.852Z,80.79
2019-03-04T02:41:51.151Z,80.93
2019-03-04T02:42:51.633Z,80.73
2019-03-04T02:43:50.755Z,80.69
2019-03-04T02:44:50.729Z,80.83
2019-03-04T02:45:51.624Z,80.49
2019-03-04T02:46:50.720Z,80.83
2019-03-04T02:47:50.632Z,81.14
2019-03-04T02:48:50.600Z,81.24
2019-03-04T02:49:50.582Z,81.07
2019-03-04T02:50:50.542Z,81.55
2019-03-04T02:51:50.541Z,81.55
2019-03-04T02:52:51.130Z,81.55
2019-03-04T02:53:50.444Z,81.86
2019-03-04T02:54:50.436Z,81.76
2019-03-04T02:55:50.380Z,81.28
2019-03-04T02:56:50.393Z,81.76
2019-03-04T02:57:50.321Z,81.86
2019-03-04T02:58:50.288Z,81.28
2019-03-04T02:59:50.255Z,81.34
2019-03-04T03:00:50.242Z,81.34
2019-03-04T03:01:50.220Z,81.96
2019-03-04T03:02:50.169Z,81.55
2019-03-04T03:03:50.132Z,81.76
2019-03-04T03:04:50.623Z,81.45
2019-03-04T03:05:50.621Z,81.45
2019-03-04T03:06:50.062Z,81.59
2019-03-04T03:07:50.034Z,81.55
2019-03-04T03:08:49.974Z,81.76
2019-03-04T03:09:50.623Z,82.10
2019-03-04T03:10:49.915Z,82.20
2019-03-04T03:11:49.902Z,82.31
2019-03-04T03:12:49.852Z,82.71
2019-03-04T03:13:49.819Z,82.41
2019-03-04T03:14:50.623Z,82.62
2019-03-04T03:15:49.759Z,82.62
2019-03-04T03:16:49.757Z,82.31
2019-03-04T03:17:49.693Z,82.62
2019-03-04T03:18:49.671Z,82.20
2019-03-04T03:19:49.636Z,82.00
2019-03-04T03:20:50.123Z,82.20
2019-03-04T03:21:49.609Z,82.17
2019-03-04T03:22:50.125Z,81.96
2019-03-04T03:23:49.507Z,82.00
2019-03-04T03:24:49.475Z,82.51
2019-03-04T03:25:50.126Z,82.41
2019-03-04T03:26:49.429Z,82.51
2019-03-04T03:27:49.406Z,82.82
2019-03-04T03:28:49.353Z,83.13
2019-03-04T03:29:51.878Z,83.13
2019-03-04T03:30:49.286Z,83.03
2019-03-04T03:31:49.264Z,83.13
2019-03-04T03:32:49.707Z,83.13
2019-03-04T03:33:49.211Z,82.71
2019-03-04T03:34:50.193Z,81.86
2019-03-04T03:35:49.131Z,81.76
2019-03-04T03:36:49.098Z,81.79
2019-03-04T03:37:49.099Z,82.10
2019-03-04T03:38:49.037Z,82.06
2019-03-04T03:39:50.532Z,82.57
2019-03-04T03:40:48.971Z,81.96
2019-03-04T03:41:48.948Z,81.96
2019-03-04T03:42:50.068Z,81.90
2019-03-04T03:43:48.884Z,82.06
2019-03-04T03:44:48.850Z,81.45
2019-03-04T03:45:48.818Z,81.76
2019-03-04T03:46:48.792Z,81.55
2019-03-04T03:47:48.798Z,81.45
2019-03-04T03:48:49.631Z,81.45
2019-03-04T03:49:48.721Z,81.45
2019-03-04T03:50:48.683Z,81.55
2019-03-04T03:51:48.647Z,81.76
2019-03-04T03:52:48.646Z,81.30
2019-03-04T03:53:48.597Z,81.20
2019-03-04T03:54:48.550Z,81.20
2019-03-04T03:55:48.558Z,80.79
2019-03-04T03:56:48.490Z,80.69
2019-03-04T03:57:48.478Z,80.07
2019-03-04T03:58:48.427Z,80.38
2019-03-04T03:59:48.377Z,80.18
2019-03-04T04:00:49.130Z,79.83
2019-03-04T04:01:48.329Z,80.35
2019-03-04T04:02:48.340Z,80.49
2019-03-04T04:03:48.260Z,79.93
2019-03-04T04:04:48.236Z,80.04
2019-03-04T04:05:48.211Z,80.14
2019-03-04T04:06:48.165Z,79.93
2019-03-04T04:07:48.159Z,79.22
2019-03-04T04:08:48.136Z,79.01
2019-03-04T04:09:48.077Z,79.42
2019-03-04T04:10:48.042Z,79.52
2019-03-04T04:11:48.016Z,79.08
2019-03-04T04:12:48.007Z,79.11
2019-03-04T04:13:47.945Z,79.49
2019-03-04T04:14:47.915Z,79.42
2019-03-04T04:15:47.882Z,79.01
2019-03-04T04:16:47.854Z,79.08
2019-03-04T04:17:47.847Z,79.38
2019-03-04T04:18:47.796Z,79.22
2019-03-04T04:19:47.763Z,79.42
2019-03-04T04:20:47.731Z,79.52
2019-03-04T04:21:47.698Z,79.22
2019-03-04T04:22:47.699Z,79.32
2019-03-04T04:23:47.639Z,79.38
2019-03-04T04:24:47.616Z,78.97
2019-03-04T04:25:47.574Z,78.16
2019-03-04T04:26:47.545Z,78.56
2019-03-04T04:27:47.672Z,78.16
2019-03-04T04:28:47.499Z,78.32
2019-03-04T04:29:47.452Z,78.22
2019-03-04T04:30:47.436Z,78.32
2019-03-04T04:31:47.393Z,78.22
2019-03-04T04:32:47.702Z,77.61
2019-03-04T04:33:47.332Z,77.91
2019-03-04T04:34:47.298Z,77.71
2019-03-04T04:35:47.268Z,77.71
2019-03-04T04:36:47.239Z,77.20
2019-03-04T04:37:47.234Z,77.71
2019-03-04T04:38:47.206Z,77.20
2019-03-04T04:39:47.159Z,77.06
2019-03-04T04:40:47.114Z,76.44
2019-03-04T04:41:47.095Z,76.75
2019-03-04T04:42:47.080Z,76.65
2019-03-04T04:43:47.033Z,76.31
2019-03-04T04:44:46.994Z,76.81
2019-03-04T04:45:46.962Z,76.10
2019-03-04T04:46:46.933Z,75.99
2019-03-04T04:47:46.904Z,76.20
2019-03-04T04:48:46.898Z,76.40
2019-03-04T04:49:47.019Z,75.79
2019-03-04T04:50:46.812Z,75.07
2019-03-04T04:51:46.780Z,75.18
2019-03-04T04:52:46.751Z,75.69
2019-03-04T04:53:47.174Z,75.76
2019-03-04T04:54:46.690Z,75.96
2019-03-04T04:55:46.657Z,75.35
2019-03-04T04:56:46.640Z,75.86
2019-03-04T04:57:46.602Z,75.65
2019-03-04T04:58:46.595Z,75.96
2019-03-04T04:59:46.551Z,76.27
2019-03-04T05:00:46.513Z,76.78
2019-03-04T05:01:46.483Z,76.57
2019-03-04T05:02:46.446Z,76.81
2019-03-04T05:03:46.447Z,77.19
2019-03-04T05:04:46.391Z,77.70
2019-03-04T05:05:46.356Z,78.01
2019-03-04T05:06:46.329Z,77.50
2019-03-04T05:07:46.296Z,77.91
2019-03-04T05:08:46.290Z,78.52
2019-03-04T05:09:47.142Z,79.07
2019-03-04T05:10:46.207Z,80.09
2019-03-04T05:11:46.185Z,79.68
2019-03-04T05:12:47.145Z,80.71
2019-03-04T05:13:46.139Z,81.87
2019-03-04T05:14:46.092Z,81.57
2019-03-04T05:15:46.059Z,81.98
2019-03-04T05:16:46.034Z,81.77
2019-03-04T05:17:46.000Z,82.08
2019-03-04T05:18:45.989Z,82.59
2019-03-04T05:19:45.938Z,83.14
2019-03-04T05:20:46.642Z,83.04
2019-03-04T05:21:45.877Z,82.93
2019-03-04T05:22:45.847Z,83.55
2019-03-04T05:23:45.835Z,83.04
2019-03-04T05:24:46.642Z,83.34
2019-03-04T05:25:45.758Z,83.55
2019-03-04T05:26:45.727Z,83.25
2019-03-04T05:27:45.699Z,83.04
2019-03-04T05:28:45.701Z,83.55
2019-03-04T05:29:46.065Z,83.41
2019-03-04T05:30:45.612Z,84.06
2019-03-04T05:31:45.636Z,84.06
2019-03-04T05:32:45.543Z,84.33
2019-03-04T05:33:45.539Z,84.68
2019-03-04T05:34:46.145Z,84.06
2019-03-04T05:35:45.454Z,84.06
2019-03-04T05:36:45.428Z,83.34
2019-03-04T05:37:45.396Z,83.31
2019-03-04T05:38:45.390Z,82.69
2019-03-04T05:39:45.333Z,83.34
2019-03-04T05:40:45.301Z,82.83
2019-03-04T05:41:45.274Z,82.79
2019-03-04T05:42:45.243Z,83.00
2019-03-04T05:43:45.243Z,82.59
2019-03-04T05:44:45.185Z,81.77
2019-03-04T05:45:45.149Z,81.87
2019-03-04T05:46:45.126Z,81.91
2019-03-04T05:47:45.100Z,81.77
2019-03-04T05:48:45.113Z,81.67
2019-03-04T05:49:45.648Z,81.57
2019-03-04T05:50:45.014Z,81.77
2019-03-04T05:51:44.976Z,81.57
2019-03-04T05:52:45.663Z,82.01
2019-03-04T05:53:44.940Z,82.01
2019-03-04T05:54:44.880Z,82.63
2019-03-04T05:55:44.857Z,83.04
2019-03-04T05:56:44.822Z,82.93
2019-03-04T05:57:44.790Z,82.22
2019-03-04T05:58:44.785Z,83.25
2019-03-04T05:59:44.736Z,83.34
2019-03-04T06:00:44.705Z,83.14
2019-03-04T06:01:44.669Z,83.14
2019-03-04T06:02:44.643Z,83.25
2019-03-04T06:03:44.649Z,83.28
2019-03-04T06:04:44.578Z,83.25
2019-03-04T06:05:44.547Z,83.14
2019-03-04T06:06:44.521Z,83.14
2019-03-04T06:07:44.488Z,82.93
2019-03-04T06:08:44.461Z,82.56
2019-03-04T06:09:44.452Z,82.83
2019-03-04T06:10:44.397Z,82.73
2019-03-04T06:11:44.366Z,82.36
2019-03-04T06:12:44.338Z,82.12
2019-03-04T06:13:44.332Z,82.32
2019-03-04T06:14:44.683Z,81.81
2019-03-04T06:15:44.244Z,82.01
2019-03-04T06:16:47.456Z,82.01
2019-03-04T06:17:44.187Z,81.91
2019-03-04T06:18:44.157Z,81.81
2019-03-04T06:19:44.175Z,81.81
2019-03-04T06:20:44.099Z,81.81
2019-03-04T06:21:44.067Z,82.42
2019-03-04T06:22:44.034Z,81.81
2019-03-04T06:23:44.010Z,82.01
2019-03-04T06:24:43.994Z,81.64
2019-03-04T06:25:43.945Z,81.74
2019-03-04T06:26:43.931Z,81.85
2019-03-04T06:27:43.889Z,81.81
2019-03-04T06:28:43.864Z,81.40
2019-03-04T06:29:43.870Z,81.74
2019-03-04T06:30:43.795Z,81.60
2019-03-04T06:31:43.764Z,81.50
2019-03-04T06:32:43.733Z,80.99
2019-03-04T06:33:43.703Z,81.60
2019-03-04T06:34:43.699Z,81.71
2019-03-04T06:35:43.642Z,81.40
2019-03-04T06:36:43.625Z,81.29
2019-03-04T06:37:43.583Z,81.50
2019-03-04T06:38:43.553Z,80.78
2019-03-04T06:39:43.544Z,80.99
2019-03-04T06:40:43.493Z,81.09
2019-03-04T06:41:44.157Z,81.60
2019-03-04T06:42:43.438Z,81.15
2019-03-04T06:43:44.249Z,80.78
2019-03-04T06:44:43.397Z,80.99
2019-03-04T06:45:43.342Z,80.37
2019-03-04T06:46:43.310Z,80.23
2019-03-04T06:47:43.277Z,79.62
2019-03-04T06:48:43.252Z,79.82
2019-03-04T06:49:43.245Z,79.79
2019-03-04T06:50:43.192Z,80.03
2019-03-04T06:51:43.161Z,79.79
2019-03-04T06:52:43.132Z,79.68
2019-03-04T06:53:43.102Z,79.89
2019-03-04T06:54:43.109Z,79.31
2019-03-04T06:55:43.038Z,79.58
2019-03-04T06:56:43.010Z,79.99
2019-03-04T06:57:42.979Z,79.62
2019-03-04T06:58:42.949Z,80.19
2019-03-04T06:59:43.658Z,79.00
2019-03-04T07:00:42.912Z,79.07
2019-03-04T07:01:42.860Z,79.48
2019-03-04T07:02:42.830Z,79.11
2019-03-04T07:03:42.803Z,78.97
2019-03-04T07:04:42.771Z,78.66
2019-03-04T07:05:42.765Z,78.66
2019-03-04T07:06:42.708Z,78.25
2019-03-04T07:07:42.681Z,77.70
2019-03-04T07:08:42.652Z,77.80
2019-03-04T07:09:42.624Z,77.39
2019-03-04T07:10:42.615Z,76.75
2019-03-04T07:11:42.570Z,77.36
2019-03-04T07:12:42.534Z,76.64
2019-03-04T07:13:42.508Z,76.64
2019-03-04T07:14:42.479Z,76.23
2019-03-04T07:15:42.471Z,75.93
2019-03-04T07:16:42.414Z,76.13
2019-03-04T07:17:42.385Z,76.23
2019-03-04T07:18:42.355Z,76.23
2019-03-04T07:19:42.323Z,76.13
2019-03-04T07:20:42.300Z,76.03
2019-03-04T07:21:42.290Z,75.99
2019-03-04T07:22:42.244Z,75.99
2019-03-04T07:23:42.211Z,75.48
2019-03-04T07:24:42.178Z,75.99
2019-03-04T07:25:42.150Z,76.20
2019-03-04T07:26:42.144Z,75.89
2019-03-04T07:27:44.305Z,75.82
2019-03-04T07:28:42.084Z,75.89
2019-03-04T07:29:42.032Z,75.31
2019-03-04T07:30:42.003Z,75.72
2019-03-04T07:31:41.998Z,75.21
2019-03-04T07:32:41.958Z,75.62
2019-03-04T07:33:41.915Z,76.03
2019-03-04T07:34:42.669Z,75.93
2019-03-04T07:35:42.670Z,75.72
2019-03-04T07:36:41.851Z,75.52
2019-03-04T07:37:41.803Z,75.52
2019-03-04T07:38:41.784Z,75.72
2019-03-04T07:39:41.750Z,75.62
2019-03-04T07:40:41.710Z,76.34
2019-03-04T07:41:41.711Z,75.89
2019-03-04T07:42:42.166Z,76.03
2019-03-04T07:43:41.674Z,75.52
2019-03-04T07:44:41.590Z,75.72
2019-03-04T07:45:41.566Z,76.03
2019-03-04T07:46:41.720Z,76.13
2019-03-04T07:47:41.504Z,76.03
2019-03-04T07:48:41.481Z,76.64
2019-03-04T07:49:42.177Z,76.68
2019-03-04T07:50:42.167Z,76.64
2019-03-04T07:51:41.392Z,76.23
2019-03-04T07:52:41.382Z,76.43
2019-03-04T07:53:46.426Z,76.54
2019-03-04T07:54:42.189Z,77.29
2019-03-04T07:55:41.276Z,77.29
2019-03-04T07:56:41.246Z,77.15
2019-03-04T07:57:41.233Z,76.95
2019-03-04T07:58:41.186Z,77.05
2019-03-04T07:59:41.156Z,76.75
2019-03-04T08:00:41.178Z,76.75
2019-03-04T08:01:41.097Z,76.84
2019-03-04T08:02:41.097Z,76.23
2019-03-04T08:03:41.135Z,75.99
2019-03-04T08:04:41.017Z,76.20
2019-03-04T08:05:40.982Z,76.09
2019-03-04T08:06:40.956Z,75.68
2019-03-04T08:07:40.947Z,75.38
2019-03-04T08:08:40.913Z,74.97
2019-03-04T08:09:41.672Z,75.45
2019-03-04T08:10:40.834Z,74.66
2019-03-04T08:11:41.671Z,74.26
2019-03-04T08:12:40.800Z,74.43
2019-03-04T08:13:40.752Z,74.22
2019-03-04T08:14:41.670Z,74.43
2019-03-04T08:15:41.674Z,73.36
2019-03-04T08:16:41.175Z,73.88
2019-03-04T08:17:40.663Z,73.06
2019-03-04T08:18:40.609Z,72.75
2019-03-04T08:19:40.613Z,71.59
2019-03-04T08:20:40.581Z,71.70
2019-03-04T08:21:40.541Z,71.26
2019-03-04T08:22:40.544Z,70.92
2019-03-04T08:23:41.176Z,70.61
2019-03-04T08:24:41.175Z,70.00
2019-03-04T08:26:41.136Z,69.15
2019-03-04T08:27:43.083Z,68.64
2019-03-04T08:28:40.421Z,68.84
2019-03-04T08:29:41.082Z,68.13
2019-03-04T08:30:40.277Z,68.61
2019-03-04T08:31:40.290Z,67.90
2019-03-04T08:32:40.207Z,67.96
2019-03-04T08:33:40.202Z,68.48
2019-03-04T08:34:40.158Z,67.55
2019-03-04T08:35:40.125Z,67.76
2019-03-04T08:36:40.095Z,68.17
2019-03-04T08:37:40.064Z,67.25
2019-03-04T08:38:40.060Z,68.17
2019-03-04T08:39:40.011Z,67.86
2019-03-04T08:40:39.981Z,67.35
2019-03-04T08:41:39.955Z,68.07
2019-03-04T08:42:39.930Z,68.27
2019-03-04T08:43:39.948Z,67.46
2019-03-04T08:44:39.871Z,67.08
2019-03-04T08:45:39.849Z,67.35
2019-03-04T08:46:39.819Z,67.35
2019-03-04T08:47:39.789Z,67.08
2019-03-04T08:48:39.811Z,66.77
2019-03-04T08:49:39.737Z,66.88
2019-03-04T08:50:39.730Z,66.23
2019-03-04T08:51:39.683Z,67.25
2019-03-04T08:52:39.653Z,67.15
2019-03-04T08:53:39.647Z,66.64
2019-03-04T08:54:39.604Z,65.62
2019-03-04T08:55:39.579Z,66.03
2019-03-04T08:56:39.543Z,65.62
2019-03-04T08:57:39.515Z,65.62
2019-03-04T08:58:39.520Z,64.67
2019-03-04T08:59:39.465Z,64.47
2019-03-04T09:00:39.433Z,64.98
2019-03-04T09:01:39.402Z,63.86
2019-03-04T09:02:39.381Z,63.65
2019-03-04T09:03:39.370Z,63.93
2019-03-04T09:04:39.323Z,63.76
2019-03-04T09:05:39.299Z,63.62
2019-03-04T09:06:39.263Z,63.73
2019-03-04T09:07:39.237Z,63.53
2019-03-04T09:08:39.218Z,63.32
2019-03-04T09:09:39.208Z,63.93
2019-03-04T09:10:39.155Z,63.42
2019-03-04T09:11:39.130Z,63.62
2019-03-04T09:12:39.098Z,63.01
2019-03-04T09:13:39.081Z,63.32
2019-03-04T09:14:39.073Z,62.81
2019-03-04T09:15:39.024Z,62.71
2019-03-04T09:16:38.993Z,62.81
2019-03-04T09:17:38.980Z,63.09
2019-03-04T09:18:38.935Z,62.40
2019-03-04T09:19:38.934Z,62.71
2019-03-04T09:20:39.684Z,62.68
2019-03-04T09:21:38.852Z,62.58
2019-03-04T09:22:38.832Z,62.27
2019-03-04T09:23:38.801Z,61.76
2019-03-04T09:24:38.795Z,62.17
2019-03-04T09:25:38.751Z,62.27
2019-03-04T09:26:38.716Z,62.30
2019-03-04T09:27:38.695Z,62.58
2019-03-04T09:28:38.661Z,61.90
2019-03-04T09:29:38.658Z,62.10
2019-03-04T09:30:41.596Z,61.49
2019-03-04T09:31:38.588Z,61.99
2019-03-04T09:32:38.552Z,61.99
2019-03-04T09:33:38.527Z,62.30
2019-03-04T09:34:38.527Z,61.90
2019-03-04T09:35:38.474Z,62.10
2019-03-04T09:36:38.449Z,62.30
2019-03-04T09:37:38.421Z,61.79
2019-03-04T09:38:38.390Z,61.69
2019-03-04T09:39:38.382Z,61.49
2019-03-04T09:40:39.191Z,61.56
2019-03-04T09:41:39.199Z,61.56
2019-03-04T09:42:38.294Z,61.76
2019-03-04T09:43:38.251Z,61.25
2019-03-04T09:44:38.251Z,61.53
2019-03-04T09:45:39.373Z,61.22
2019-03-04T09:46:38.183Z,60.92
2019-03-04T09:47:38.137Z,60.59
2019-03-04T09:48:38.112Z,60.28
2019-03-04T09:49:38.110Z,60.18
2019-03-04T09:50:38.057Z,59.54
2019-03-04T09:51:38.692Z,59.64
2019-03-04T09:52:38.009Z,58.70
2019-03-04T09:53:39.691Z,58.27
2019-03-04T09:54:37.974Z,57.66
2019-03-04T09:55:37.925Z,58.06
2019-03-04T09:56:37.896Z,56.72
2019-03-04T09:57:37.875Z,56.72
2019-03-04T09:58:37.847Z,55.60
2019-03-04T09:59:37.840Z,55.68
2019-03-04T10:00:37.786Z,55.25
2019-03-04T10:01:37.766Z,55.76
2019-03-04T10:02:37.738Z,54.44
2019-03-04T10:03:37.713Z,54.61
2019-03-04T10:04:37.710Z,54.11
2019-03-04T10:05:37.662Z,53.67
2019-03-04T10:06:37.634Z,53.80
2019-03-04T10:07:37.604Z,53.40
2019-03-04T10:08:37.587Z,53.37
2019-03-04T10:09:37.572Z,53.60
2019-03-04T10:10:37.548Z,53.30
2019-03-04T10:11:37.498Z,53.93
2019-03-04T10:12:37.490Z,53.80
2019-03-04T10:13:37.449Z,53.91
2019-03-04T10:14:37.425Z,53.52
2019-03-04T10:15:37.423Z,52.99
2019-03-04T10:16:37.378Z,52.28
2019-03-04T10:17:37.344Z,52.36
2019-03-04T10:18:37.323Z,52.15
2019-03-04T10:19:37.296Z,51.93
2019-03-04T10:20:37.343Z,51.73
2019-03-04T10:21:37.249Z,50.69
2019-03-04T10:22:37.220Z,51.17
2019-03-04T10:23:37.196Z,50.37
2019-03-04T10:24:37.169Z,48.82
2019-03-04T10:25:37.168Z,48.52
2019-03-04T10:26:37.124Z,48.70
2019-03-04T10:27:37.092Z,48.70
2019-03-04T10:28:37.058Z,48.60
2019-03-04T10:29:37.036Z,47.71
2019-03-04T10:30:37.036Z,48.70
2019-03-04T10:31:36.988Z,48.32
2019-03-04T10:32:36.964Z,47.61
2019-03-04T10:33:36.936Z,48.03
2019-03-04T10:34:36.908Z,47.94
2019-03-04T10:35:36.912Z,48.54
2019-03-04T10:36:36.862Z,48.57
2019-03-04T10:37:37.708Z,49.07
2019-03-04T10:38:36.809Z,49.38
2019-03-04T10:39:36.783Z,49.27
2019-03-04T10:40:36.785Z,49.27
2019-03-04T10:41:36.733Z,48.57
2019-03-04T10:42:36.711Z,47.75
2019-03-04T10:43:36.686Z,47.55
2019-03-04T10:44:37.984Z,47.47
2019-03-04T10:45:36.630Z,46.77
2019-03-04T10:46:36.631Z,46.97
2019-03-04T10:47:43.677Z,47.88
2019-03-04T10:48:36.551Z,46.77
2019-03-04T10:49:36.531Z,46.67
2019-03-04T10:50:36.502Z,45.86
2019-03-04T10:51:36.505Z,46.75
2019-03-04T10:52:36.451Z,46.24
2019-03-04T10:53:36.444Z,46.87
2019-03-04T10:54:36.403Z,47.07
2019-03-04T10:55:42.102Z,47.05
2019-03-04T10:56:36.373Z,46.95
2019-03-04T10:57:36.326Z,46.44
2019-03-04T10:58:36.297Z,46.34
2019-03-04T10:59:36.270Z,46.54
2019-03-04T11:00:36.248Z,46.95
2019-03-04T11:01:36.249Z,47.38
2019-03-04T11:02:36.200Z,47.07
2019-03-04T11:03:36.177Z,46.77
2019-03-04T11:04:36.145Z,47.17
2019-03-04T11:05:36.128Z,46.97
2019-03-04T11:06:36.117Z,47.09
2019-03-04T11:07:36.067Z,48.03
2019-03-04T11:08:36.043Z,49.37
2019-03-04T11:09:36.019Z,55.91
2019-03-04T11:10:35.994Z,63.80
2019-03-04T11:11:35.994Z,71.22
2019-03-04T11:12:35.943Z,74.63
2019-03-04T11:13:35.918Z,76.43
2019-03-04T11:14:35.889Z,77.94
2019-03-04T11:15:35.858Z,81.36
2019-03-04T11:16:35.833Z,82.42
2019-03-04T11:17:35.827Z,84.10
2019-03-04T11:18:35.778Z,83.69
2019-03-04T11:19:35.746Z,82.77
2019-03-04T11:20:35.717Z,82.91
2019-03-04T11:21:35.696Z,82.60
2019-03-04T11:22:35.710Z,83.63
2019-03-04T11:23:35.631Z,83.15
2019-03-04T11:24:35.605Z,83.63
2019-03-04T11:25:35.572Z,84.59
2019-03-04T11:26:35.545Z,83.56
2019-03-04T11:27:35.606Z,83.36
2019-03-04T11:28:35.485Z,83.46
2019-03-04T11:29:35.488Z,81.92
2019-03-04T11:30:35.427Z,81.20
2019-03-04T11:31:35.403Z,78.53
2019-03-04T11:32:35.430Z,78.53
2019-03-04T11:33:35.333Z,79.15
2019-03-04T11:34:35.308Z,78.78
2019-03-04T11:35:35.287Z,78.78
2019-03-04T11:36:35.242Z,79.39
2019-03-04T11:37:35.314Z,79.39
2019-03-04T11:38:35.188Z,79.91
2019-03-04T11:39:35.149Z,80.66
2019-03-04T11:40:35.149Z,80.25
2019-03-04T11:41:35.092Z,80.46
2019-03-04T11:42:35.100Z,81.45
2019-03-04T11:43:35.033Z,81.69
2019-03-04T11:44:35.000Z,81.18
2019-03-04T11:45:34.973Z,81.28
2019-03-04T11:46:34.945Z,81.32
2019-03-04T11:47:34.915Z,80.87
2019-03-04T11:48:34.934Z,81.38
2019-03-04T11:49:34.857Z,81.28
2019-03-04T11:50:34.815Z,80.66
2019-03-04T11:51:34.837Z,80.32
2019-03-04T11:52:34.759Z,80.32
2019-03-04T11:53:35.658Z,80.21
2019-03-04T11:54:34.713Z,79.66
2019-03-04T11:55:34.699Z,79.15
2019-03-04T11:56:34.644Z,78.23
2019-03-04T11:57:34.624Z,78.29
2019-03-04T11:58:34.616Z,77.17
2019-03-04T11:59:34.586Z,77.37
2019-03-04T12:00:34.523Z,77.13
2019-03-04T12:01:34.481Z,76.82
2019-03-04T12:02:38.835Z,75.38
2019-03-04T12:03:34.455Z,74.70
2019-03-04T12:04:34.405Z,75.38
2019-03-04T12:05:34.370Z,72.99
2019-03-04T12:06:34.332Z,71.66
2019-03-04T12:07:34.320Z,71.62
2019-03-04T12:08:34.324Z,71.59
2019-03-04T12:09:34.244Z,71.39
2019-03-04T12:10:34.232Z,70.47
2019-03-04T12:11:38.157Z,70.16
2019-03-04T12:12:34.155Z,70.54
2019-03-04T12:13:34.180Z,68.57
2019-03-04T12:14:34.105Z,69.35
2019-03-04T12:15:34.180Z,69.04
2019-03-04T12:16:34.087Z,69.24
2019-03-04T12:17:34.028Z,69.76
2019-03-04T12:18:34.046Z,68.53
2019-03-04T12:19:33.972Z,68.23
2019-03-04T12:20:33.927Z,68.36
2019-03-04T12:21:33.898Z,68.57
2019-03-04T12:22:33.896Z,68.46
2019-03-04T12:23:33.836Z,67.95
2019-03-04T12:24:33.874Z,68.36
2019-03-04T12:25:33.793Z,67.85
2019-03-04T12:26:33.766Z,67.34
2019-03-04T12:27:33.735Z,68.66
2019-03-04T12:28:33.702Z,68.36
2019-03-04T12:29:33.729Z,68.77
2019-03-04T12:30:33.652Z,69.52
2019-03-04T12:31:33.612Z,69.79
2019-03-04T12:32:33.586Z,68.46
2019-03-04T12:33:33.569Z,69.01
2019-03-04T12:34:33.573Z,68.60
2019-03-04T12:35:33.482Z,69.31
2019-03-04T12:36:33.477Z,68.08
2019-03-04T12:37:33.456Z,67.16
2019-03-04T12:38:33.402Z,68.46
2019-03-04T12:39:33.412Z,67.13
2019-03-04T12:40:33.355Z,65.60
2019-03-04T12:41:33.316Z,66.28
2019-03-04T12:42:33.303Z,65.37
2019-03-04T12:43:33.298Z,64.34
2019-03-04T12:44:33.291Z,64.31
2019-03-04T12:45:34.610Z,64.86
2019-03-04T12:46:33.180Z,63.73
2019-03-04T12:47:33.164Z,63.81
2019-03-04T12:48:33.148Z,64.01
2019-03-04T12:49:33.134Z,63.40
2019-03-04T12:50:33.082Z,62.78
2019-03-04T12:51:33.032Z,63.29
2019-03-04T12:52:33.018Z,62.96
2019-03-04T12:53:37.316Z,62.78